Aviation Digital Data Service (ADDS)

Output produced by METARs form (0211 UTC 26 April 2019)
found at http://www.aviationweather.gov/metar/data/
 
KGSO 252320Z 2600/2624 22006KT P6SM FEW050 BKN150 
     FM260700 20007KT P6SM VCSH FEW025 BKN050 OVC100 
     TEMPO 2608/2611 -SHRA BKN015 
     FM261100 22011G22KT P6SM BKN030 
     FM261600 22012G24KT 5SM -SHRA BR OVC035 
     FM262100 29018G28KT P6SM SCT250